EHGR/GLZ METAR and TAF weather

Enter ICAO airport designator
Station Type Date Time Source
EHGR METAR 2019/10/18 06:46 UTC NOAA

EHGR 180646Z AUTO 16009KT 130V190 9999 FEW024 BKN029 BKN100 13/11 Q1003 BLU


Station Type Date Time Source
EHGR Decoded METAR 2019/10/18 06:46 UTC NOAA

Gilze-Rijen, Netherlands (EHGR) 51-34N 004-56E 24M
Oct 18, 2019 - 02:46 AM EDT / 2019.10.18 0646 UTC
Wind: from the SSE (160 degrees) at 10 MPH (9 KT) (direction variable):0
Visibility: greater than 7 mile(s):0
Sky conditions: mostly cloudy
Temperature: 55 F (13 C)
Dew Point: 51 F (11 C)
Relative Humidity: 87%
Pressure (altimeter): 29.62 in. Hg (1003 hPa)
ob: EHGR 180646Z AUTO 16009KT 130V190 9999 FEW024 BKN029 BKN100 13/11 Q1003 BLU
cycle: 7

Station Type Date Time Source
EHGR TAF 2019/10/18 05:06 UTC NOAA

TAF TAF EHGR 180424Z 1805/1817 17007KT 9999 SCT025
BECMG 1806/1809 22015G25KT
TEMPO 1808/1813 23016G30KT 3000 SHRA TSRAGS SCT012 SCT018CB BKN020 PROB30
TEMPO 1813/1817 FEW015 SCT020CB

Example: see airport list